Terminal Aerodrome Forecast
Issued by NWS

Home | Current Version | Previous Version | Text Only | Print | Product List | Glossary On
Versions: 1 2 3 4 5 6 7 8 9 10 11 12 13 14 15 16 17 18
307
FTAK31 PAJN 061733
TAFAKT
TAF
PAKT 061733Z 0618/0718 31007KT P6SM SCT100
     FM062300 19007KT P6SM SCT100
      AMD LTD TO CLD VIS AND WIND 0706/0715=

USA.gov is the U.S. government's official web portal to all federal, state and local government web resources and services.